sensor_id;sensor_type;location;lat;lon;timestamp;P1;durP1;ratioP1;P2;durP2;ratioP2
77466;SDS011;66564;42.482;25.548;2023-11-19T00:00:50;0.50;;;0.50;;
77466;SDS011;66564;42.482;25.548;2023-11-19T00:03:16;1.05;;;0.98;;
77466;SDS011;66564;42.482;25.548;2023-11-19T00:05:42;1.05;;;0.95;;
77466;SDS011;66564;42.482;25.548;2023-11-19T00:08:09;1.13;;;0.98;;
77466;SDS011;66564;42.482;25.548;2023-11-19T00:10:35;1.05;;;0.88;;
77466;SDS011;66564;42.482;25.548;2023-11-19T00:13:00;1.00;;;0.93;;
77466;SDS011;66564;42.482;25.548;2023-11-19T00:15:27;3.75;;;1.10;;
77466;SDS011;66564;42.482;25.548;2023-11-19T00:17:53;1.27;;;0.80;;
77466;SDS011;66564;42.482;25.548;2023-11-19T00:20:19;0.85;;;0.75;;
77466;SDS011;66564;42.482;25.548;2023-11-19T00:22:47;0.90;;;0.90;;
77466;SDS011;66564;42.482;25.548;2023-11-19T00:25:16;1.17;;;0.90;;
77466;SDS011;66564;42.482;25.548;2023-11-19T00:27:42;1.08;;;0.93;;
77466;SDS011;66564;42.482;25.548;2023-11-19T00:30:11;2.22;;;1.25;;
77466;SDS011;66564;42.482;25.548;2023-11-19T00:32:40;1.00;;;0.93;;
77466;SDS011;66564;42.482;25.548;2023-11-19T00:35:06;0.77;;;0.70;;
77466;SDS011;66564;42.482;25.548;2023-11-19T00:37:32;1.25;;;1.00;;
77466;SDS011;66564;42.482;25.548;2023-11-19T00:39:58;1.42;;;1.02;;
77466;SDS011;66564;42.482;25.548;2023-11-19T00:42:23;1.30;;;0.95;;
77466;SDS011;66564;42.482;25.548;2023-11-19T00:44:50;4.18;;;1.27;;
77466;SDS011;66564;42.482;25.548;2023-11-19T00:47:16;1.58;;;1.00;;
77466;SDS011;66564;42.482;25.548;2023-11-19T00:49:41;1.73;;;1.08;;
77466;SDS011;66564;42.482;25.548;2023-11-19T00:52:08;15.00;;;1.27;;
77466;SDS011;66564;42.482;25.548;2023-11-19T00:54:33;0.90;;;0.90;;
77466;SDS011;66564;42.482;25.548;2023-11-19T00:56:58;1.60;;;0.77;;
77466;SDS011;66564;42.482;25.548;2023-11-19T00:59:24;0.80;;;0.80;;
77466;SDS011;66564;42.482;25.548;2023-11-19T01:01:50;0.93;;;0.73;;
77466;SDS011;66564;42.482;25.548;2023-11-19T01:04:18;1.27;;;0.77;;
77466;SDS011;66564;42.482;25.548;2023-11-19T01:06:43;1.63;;;0.73;;
77466;SDS011;66564;42.482;25.548;2023-11-19T01:09:09;0.80;;;0.80;;
77466;SDS011;66564;42.482;25.548;2023-11-19T01:11:35;1.27;;;0.70;;
77466;SDS011;66564;42.482;25.548;2023-11-19T01:14:01;1.02;;;0.85;;
77466;SDS011;66564;42.482;25.548;2023-11-19T01:16:26;0.88;;;0.77;;
77466;SDS011;66564;42.482;25.548;2023-11-19T01:18:52;1.38;;;1.10;;
77466;SDS011;66564;42.482;25.548;2023-11-19T01:21:18;1.77;;;0.85;;
77466;SDS011;66564;42.482;25.548;2023-11-19T01:23:43;0.93;;;0.77;;
77466;SDS011;66564;42.482;25.548;2023-11-19T01:26:09;0.75;;;0.60;;
77466;SDS011;66564;42.482;25.548;2023-11-19T01:28:39;1.00;;;0.80;;
77466;SDS011;66564;42.482;25.548;2023-11-19T01:31:05;0.70;;;0.57;;
77466;SDS011;66564;42.482;25.548;2023-11-19T01:33:33;1.38;;;0.88;;
77466;SDS011;66564;42.482;25.548;2023-11-19T01:36:00;0.35;;;0.35;;
77466;SDS011;66564;42.482;25.548;2023-11-19T01:38:26;0.82;;;0.82;;
77466;SDS011;66564;42.482;25.548;2023-11-19T01:40:55;0.68;;;0.65;;
77466;SDS011;66564;42.482;25.548;2023-11-19T01:46:06;2.17;;;1.10;;
77466;SDS011;66564;42.482;25.548;2023-11-19T01:48:35;1.80;;;1.05;;
77466;SDS011;66564;42.482;25.548;2023-11-19T01:51:05;1.48;;;0.90;;
77466;SDS011;66564;42.482;25.548;2023-11-19T01:53:32;1.42;;;0.98;;
77466;SDS011;66564;42.482;25.548;2023-11-19T01:55:59;1.75;;;1.55;;
77466;SDS011;66564;42.482;25.548;2023-11-19T01:58:25;1.35;;;1.08;;
77466;SDS011;66564;42.482;25.548;2023-11-19T02:00:51;2.30;;;1.05;;
77466;SDS011;66564;42.482;25.548;2023-11-19T02:03:17;2.40;;;0.98;;
77466;SDS011;66564;42.482;25.548;2023-11-19T02:05:42;1.63;;;1.10;;
77466;SDS011;66564;42.482;25.548;2023-11-19T02:08:08;3.58;;;1.40;;
77466;SDS011;66564;42.482;25.548;2023-11-19T02:10:34;1.50;;;1.17;;
77466;SDS011;66564;42.482;25.548;2023-11-19T02:13:00;1.42;;;1.10;;
77466;SDS011;66564;42.482;25.548;2023-11-19T02:15:27;2.25;;;1.30;;
77466;SDS011;66564;42.482;25.548;2023-11-19T02:17:53;4.55;;;1.80;;
77466;SDS011;66564;42.482;25.548;2023-11-19T02:20:20;2.58;;;1.38;;
77466;SDS011;66564;42.482;25.548;2023-11-19T02:22:46;1.98;;;1.40;;
77466;SDS011;66564;42.482;25.548;2023-11-19T02:25:25;2.15;;;1.60;;
77466;SDS011;66564;42.482;25.548;2023-11-19T02:27:59;2.00;;;1.40;;
77466;SDS011;66564;42.482;25.548;2023-11-19T02:32:56;1.90;;;1.15;;
77466;SDS011;66564;42.482;25.548;2023-11-19T02:35:27;1.30;;;1.13;;
77466;SDS011;66564;42.482;25.548;2023-11-19T02:37:56;1.90;;;1.30;;
77466;SDS011;66564;42.482;25.548;2023-11-19T02:40:22;1.88;;;1.27;;
77466;SDS011;66564;42.482;25.548;2023-11-19T02:42:49;1.88;;;1.45;;
77466;SDS011;66564;42.482;25.548;2023-11-19T02:45:15;1.90;;;1.17;;
77466;SDS011;66564;42.482;25.548;2023-11-19T02:47:41;2.40;;;1.50;;
77466;SDS011;66564;42.482;25.548;2023-11-19T02:50:08;1.63;;;1.30;;
77466;SDS011;66564;42.482;25.548;2023-11-19T02:52:42;1.92;;;1.40;;
77466;SDS011;66564;42.482;25.548;2023-11-19T02:55:12;4.80;;;1.73;;
77466;SDS011;66564;42.482;25.548;2023-11-19T02:57:41;1.55;;;1.27;;
77466;SDS011;66564;42.482;25.548;2023-11-19T03:00:18;1.83;;;1.33;;
77466;SDS011;66564;42.482;25.548;2023-11-19T03:02:48;1.92;;;1.52;;
77466;SDS011;66564;42.482;25.548;2023-11-19T03:05:23;2.40;;;1.48;;
77466;SDS011;66564;42.482;25.548;2023-11-19T03:07:49;2.17;;;1.55;;
77466;SDS011;66564;42.482;25.548;2023-11-19T03:10:14;2.22;;;1.60;;
77466;SDS011;66564;42.482;25.548;2023-11-19T03:12:40;2.42;;;1.45;;
77466;SDS011;66564;42.482;25.548;2023-11-19T03:15:06;2.38;;;1.60;;
77466;SDS011;66564;42.482;25.548;2023-11-19T03:17:34;2.70;;;1.90;;
77466;SDS011;66564;42.482;25.548;2023-11-19T03:20:07;3.60;;;1.88;;
77466;SDS011;66564;42.482;25.548;2023-11-19T03:22:42;2.92;;;1.75;;
77466;SDS011;66564;42.482;25.548;2023-11-19T03:25:09;2.25;;;1.58;;
77466;SDS011;66564;42.482;25.548;2023-11-19T03:27:38;3.47;;;1.95;;
77466;SDS011;66564;42.482;25.548;2023-11-19T03:30:07;2.80;;;1.48;;
77466;SDS011;66564;42.482;25.548;2023-11-19T03:32:34;2.45;;;1.67;;
77466;SDS011;66564;42.482;25.548;2023-11-19T03:35:04;1.65;;;1.30;;
77466;SDS011;66564;42.482;25.548;2023-11-19T03:37:32;3.20;;;1.80;;
77466;SDS011;66564;42.482;25.548;2023-11-19T03:39:57;2.53;;;1.83;;
77466;SDS011;66564;42.482;25.548;2023-11-19T03:42:27;3.88;;;1.60;;
77466;SDS011;66564;42.482;25.548;2023-11-19T03:44:53;5.28;;;1.80;;
77466;SDS011;66564;42.482;25.548;2023-11-19T03:47:19;2.15;;;1.58;;
77466;SDS011;66564;42.482;25.548;2023-11-19T03:49:48;2.35;;;1.70;;
77466;SDS011;66564;42.482;25.548;2023-11-19T03:52:15;3.13;;;1.88;;
77466;SDS011;66564;42.482;25.548;2023-11-19T03:54:41;4.43;;;1.88;;
77466;SDS011;66564;42.482;25.548;2023-11-19T03:57:06;3.65;;;2.45;;
77466;SDS011;66564;42.482;25.548;2023-11-19T03:59:32;2.35;;;1.70;;
77466;SDS011;66564;42.482;25.548;2023-11-19T04:01:58;2.75;;;1.50;;
77466;SDS011;66564;42.482;25.548;2023-11-19T04:04:25;2.15;;;1.75;;
77466;SDS011;66564;42.482;25.548;2023-11-19T04:06:52;2.40;;;1.70;;
77466;SDS011;66564;42.482;25.548;2023-11-19T04:09:17;7.88;;;1.90;;
77466;SDS011;66564;42.482;25.548;2023-11-19T04:11:43;2.80;;;1.95;;
77466;SDS011;66564;42.482;25.548;2023-11-19T04:14:08;4.03;;;2.22;;
77466;SDS011;66564;42.482;25.548;2023-11-19T04:16:35;12.38;;;2.33;;
77466;SDS011;66564;42.482;25.548;2023-11-19T04:19:00;4.35;;;1.90;;
77466;SDS011;66564;42.482;25.548;2023-11-19T04:21:26;2.78;;;1.60;;
77466;SDS011;66564;42.482;25.548;2023-11-19T04:23:52;9.35;;;1.77;;
77466;SDS011;66564;42.482;25.548;2023-11-19T04:26:17;10.70;;;2.67;;
77466;SDS011;66564;42.482;25.548;2023-11-19T04:28:42;3.08;;;1.52;;
77466;SDS011;66564;42.482;25.548;2023-11-19T04:31:08;8.40;;;1.98;;
77466;SDS011;66564;42.482;25.548;2023-11-19T04:33:34;18.67;;;2.70;;
77466;SDS011;66564;42.482;25.548;2023-11-19T04:35:59;20.70;;;2.30;;
77466;SDS011;66564;42.482;25.548;2023-11-19T04:38:25;6.15;;;1.75;;
77466;SDS011;66564;42.482;25.548;2023-11-19T04:40:51;2.17;;;1.60;;
77466;SDS011;66564;42.482;25.548;2023-11-19T04:43:17;3.80;;;1.63;;
77466;SDS011;66564;42.482;25.548;2023-11-19T04:45:43;2.92;;;1.60;;
77466;SDS011;66564;42.482;25.548;2023-11-19T04:48:08;2.67;;;1.60;;
77466;SDS011;66564;42.482;25.548;2023-11-19T04:50:34;5.28;;;2.38;;
77466;SDS011;66564;42.482;25.548;2023-11-19T04:52:59;3.70;;;1.70;;
77466;SDS011;66564;42.482;25.548;2023-11-19T04:55:25;7.88;;;1.80;;
77466;SDS011;66564;42.482;25.548;2023-11-19T04:57:50;5.90;;;1.70;;
77466;SDS011;66564;42.482;25.548;2023-11-19T05:00:19;3.10;;;1.90;;
77466;SDS011;66564;42.482;25.548;2023-11-19T05:02:46;2.08;;;1.65;;
77466;SDS011;66564;42.482;25.548;2023-11-19T05:05:12;4.47;;;2.00;;
77466;SDS011;66564;42.482;25.548;2023-11-19T05:07:37;3.92;;;1.95;;
77466;SDS011;66564;42.482;25.548;2023-11-19T05:10:03;3.13;;;1.95;;
77466;SDS011;66564;42.482;25.548;2023-11-19T05:12:31;3.25;;;2.30;;
77466;SDS011;66564;42.482;25.548;2023-11-19T05:14:56;3.67;;;1.95;;
77466;SDS011;66564;42.482;25.548;2023-11-19T05:17:23;90.32;;;9.25;;
77466;SDS011;66564;42.482;25.548;2023-11-19T05:19:48;24.70;;;3.95;;
77466;SDS011;66564;42.482;25.548;2023-11-19T05:22:14;6.40;;;2.40;;
77466;SDS011;66564;42.482;25.548;2023-11-19T05:24:40;3.58;;;2.22;;
77466;SDS011;66564;42.482;25.548;2023-11-19T05:27:06;3.88;;;2.50;;
77466;SDS011;66564;42.482;25.548;2023-11-19T05:29:32;3.30;;;2.05;;
77466;SDS011;66564;42.482;25.548;2023-11-19T05:31:58;4.53;;;2.10;;
77466;SDS011;66564;42.482;25.548;2023-11-19T05:34:24;6.13;;;3.35;;
77466;SDS011;66564;42.482;25.548;2023-11-19T05:36:50;13.68;;;2.35;;
77466;SDS011;66564;42.482;25.548;2023-11-19T05:39:16;14.27;;;3.03;;
77466;SDS011;66564;42.482;25.548;2023-11-19T05:41:43;8.80;;;2.50;;
77466;SDS011;66564;42.482;25.548;2023-11-19T05:44:09;5.18;;;2.47;;
77466;SDS011;66564;42.482;25.548;2023-11-19T05:46:34;3.78;;;2.72;;
77466;SDS011;66564;42.482;25.548;2023-11-19T05:49:05;5.65;;;2.33;;
77466;SDS011;66564;42.482;25.548;2023-11-19T05:51:31;3.30;;;2.10;;
77466;SDS011;66564;42.482;25.548;2023-11-19T05:54:01;3.85;;;2.30;;
77466;SDS011;66564;42.482;25.548;2023-11-19T05:56:26;8.68;;;2.63;;
77466;SDS011;66564;42.482;25.548;2023-11-19T05:58:57;2.83;;;1.92;;
77466;SDS011;66564;42.482;25.548;2023-11-19T06:01:23;5.30;;;2.67;;
77466;SDS011;66564;42.482;25.548;2023-11-19T06:03:48;6.60;;;2.80;;
77466;SDS011;66564;42.482;25.548;2023-11-19T06:06:15;3.28;;;2.40;;
77466;SDS011;66564;42.482;25.548;2023-11-19T06:08:40;3.70;;;2.67;;
77466;SDS011;66564;42.482;25.548;2023-11-19T06:11:06;3.58;;;2.03;;
77466;SDS011;66564;42.482;25.548;2023-11-19T06:13:32;4.07;;;2.40;;
77466;SDS011;66564;42.482;25.548;2023-11-19T06:15:58;3.92;;;2.13;;
77466;SDS011;66564;42.482;25.548;2023-11-19T06:18:23;2.95;;;2.28;;
77466;SDS011;66564;42.482;25.548;2023-11-19T06:20:49;3.78;;;2.22;;
77466;SDS011;66564;42.482;25.548;2023-11-19T06:23:15;4.45;;;2.10;;
77466;SDS011;66564;42.482;25.548;2023-11-19T06:25:40;3.85;;;2.30;;
77466;SDS011;66564;42.482;25.548;2023-11-19T06:28:06;6.57;;;2.42;;
77466;SDS011;66564;42.482;25.548;2023-11-19T06:30:31;3.03;;;2.30;;
77466;SDS011;66564;42.482;25.548;2023-11-19T06:32:57;3.17;;;2.33;;
77466;SDS011;66564;42.482;25.548;2023-11-19T06:35:23;2.28;;;1.88;;
77466;SDS011;66564;42.482;25.548;2023-11-19T06:37:49;3.30;;;2.25;;
77466;SDS011;66564;42.482;25.548;2023-11-19T06:40:14;4.07;;;2.25;;
77466;SDS011;66564;42.482;25.548;2023-11-19T06:42:40;3.70;;;2.20;;
77466;SDS011;66564;42.482;25.548;2023-11-19T06:45:06;7.30;;;2.45;;
77466;SDS011;66564;42.482;25.548;2023-11-19T06:47:32;5.07;;;2.15;;
77466;SDS011;66564;42.482;25.548;2023-11-19T06:49:58;3.60;;;2.17;;
77466;SDS011;66564;42.482;25.548;2023-11-19T06:52:23;3.65;;;2.10;;
77466;SDS011;66564;42.482;25.548;2023-11-19T06:54:50;3.15;;;1.90;;
77466;SDS011;66564;42.482;25.548;2023-11-19T06:57:15;3.10;;;2.20;;
77466;SDS011;66564;42.482;25.548;2023-11-19T06:59:41;4.82;;;2.60;;
77466;SDS011;66564;42.482;25.548;2023-11-19T07:02:07;3.35;;;2.17;;
77466;SDS011;66564;42.482;25.548;2023-11-19T07:04:33;4.75;;;2.40;;
77466;SDS011;66564;42.482;25.548;2023-11-19T07:06:59;2.65;;;2.10;;
77466;SDS011;66564;42.482;25.548;2023-11-19T07:09:25;3.53;;;1.95;;
77466;SDS011;66564;42.482;25.548;2023-11-19T07:11:50;11.93;;;5.10;;
77466;SDS011;66564;42.482;25.548;2023-11-19T07:14:17;4.95;;;2.75;;
77466;SDS011;66564;42.482;25.548;2023-11-19T07:16:43;2.92;;;2.30;;
77466;SDS011;66564;42.482;25.548;2023-11-19T07:19:09;3.45;;;2.33;;
77466;SDS011;66564;42.482;25.548;2023-11-19T07:21:35;5.38;;;2.40;;
77466;SDS011;66564;42.482;25.548;2023-11-19T07:24:09;3.10;;;2.28;;
77466;SDS011;66564;42.482;25.548;2023-11-19T07:26:35;10.55;;;2.20;;
77466;SDS011;66564;42.482;25.548;2023-11-19T07:29:02;11.82;;;2.80;;
77466;SDS011;66564;42.482;25.548;2023-11-19T07:31:28;18.80;;;3.00;;
77466;SDS011;66564;42.482;25.548;2023-11-19T07:33:53;12.10;;;3.45;;
77466;SDS011;66564;42.482;25.548;2023-11-19T07:36:20;7.47;;;2.33;;
77466;SDS011;66564;42.482;25.548;2023-11-19T07:38:46;4.78;;;2.38;;
77466;SDS011;66564;42.482;25.548;2023-11-19T07:41:12;8.02;;;2.60;;
77466;SDS011;66564;42.482;25.548;2023-11-19T07:43:44;8.75;;;2.72;;
77466;SDS011;66564;42.482;25.548;2023-11-19T07:46:11;3.35;;;2.40;;
77466;SDS011;66564;42.482;25.548;2023-11-19T07:48:40;5.38;;;2.53;;
77466;SDS011;66564;42.482;25.548;2023-11-19T07:51:07;4.50;;;2.70;;
77466;SDS011;66564;42.482;25.548;2023-11-19T07:53:33;9.43;;;2.97;;
77466;SDS011;66564;42.482;25.548;2023-11-19T07:56:00;5.25;;;2.35;;
77466;SDS011;66564;42.482;25.548;2023-11-19T07:58:26;4.45;;;2.70;;
77466;SDS011;66564;42.482;25.548;2023-11-19T08:00:51;3.03;;;1.90;;
77466;SDS011;66564;42.482;25.548;2023-11-19T08:03:17;4.60;;;2.25;;
77466;SDS011;66564;42.482;25.548;2023-11-19T08:05:44;3.38;;;2.20;;
77466;SDS011;66564;42.482;25.548;2023-11-19T08:08:10;3.00;;;1.92;;
77466;SDS011;66564;42.482;25.548;2023-11-19T08:10:35;2.80;;;2.22;;
77466;SDS011;66564;42.482;25.548;2023-11-19T08:13:01;7.05;;;2.30;;
77466;SDS011;66564;42.482;25.548;2023-11-19T08:15:27;2.33;;;1.63;;
77466;SDS011;66564;42.482;25.548;2023-11-19T08:17:52;2.85;;;1.98;;
77466;SDS011;66564;42.482;25.548;2023-11-19T08:20:18;3.50;;;2.15;;
77466;SDS011;66564;42.482;25.548;2023-11-19T08:22:44;7.20;;;2.60;;
77466;SDS011;66564;42.482;25.548;2023-11-19T08:25:09;3.05;;;2.40;;
77466;SDS011;66564;42.482;25.548;2023-11-19T08:27:35;2.60;;;1.90;;
77466;SDS011;66564;42.482;25.548;2023-11-19T08:30:00;3.00;;;2.25;;
77466;SDS011;66564;42.482;25.548;2023-11-19T08:32:26;10.32;;;2.83;;
77466;SDS011;66564;42.482;25.548;2023-11-19T08:34:52;2.80;;;1.92;;
77466;SDS011;66564;42.482;25.548;2023-11-19T08:37:19;3.90;;;2.20;;
77466;SDS011;66564;42.482;25.548;2023-11-19T08:39:49;8.07;;;2.10;;
77466;SDS011;66564;42.482;25.548;2023-11-19T08:42:16;105.82;;;38.90;;
77466;SDS011;66564;42.482;25.548;2023-11-19T08:44:42;96.00;;;29.92;;
77466;SDS011;66564;42.482;25.548;2023-11-19T08:47:19;121.60;;;24.27;;
77466;SDS011;66564;42.482;25.548;2023-11-19T08:49:44;123.55;;;22.90;;
77466;SDS011;66564;42.482;25.548;2023-11-19T08:52:10;74.45;;;10.65;;
77466;SDS011;66564;42.482;25.548;2023-11-19T08:54:36;55.50;;;5.65;;
77466;SDS011;66564;42.482;25.548;2023-11-19T08:57:07;9.77;;;2.83;;
77466;SDS011;66564;42.482;25.548;2023-11-19T08:59:33;3.75;;;2.55;;
77466;SDS011;66564;42.482;25.548;2023-11-19T09:01:59;7.32;;;3.60;;
77466;SDS011;66564;42.482;25.548;2023-11-19T09:04:25;3.03;;;2.10;;
77466;SDS011;66564;42.482;25.548;2023-11-19T09:06:50;8.32;;;2.63;;
77466;SDS011;66564;42.482;25.548;2023-11-19T09:09:16;5.05;;;2.65;;
77466;SDS011;66564;42.482;25.548;2023-11-19T09:11:41;4.20;;;2.35;;
77466;SDS011;66564;42.482;25.548;2023-11-19T09:14:07;4.15;;;2.22;;
77466;SDS011;66564;42.482;25.548;2023-11-19T09:16:33;3.38;;;2.53;;
77466;SDS011;66564;42.482;25.548;2023-11-19T09:18:59;3.17;;;2.10;;
77466;SDS011;66564;42.482;25.548;2023-11-19T09:21:25;12.88;;;2.70;;
77466;SDS011;66564;42.482;25.548;2023-11-19T09:23:51;4.22;;;2.17;;
77466;SDS011;66564;42.482;25.548;2023-11-19T09:26:19;7.38;;;2.75;;
77466;SDS011;66564;42.482;25.548;2023-11-19T09:28:44;6.47;;;2.70;;
77466;SDS011;66564;42.482;25.548;2023-11-19T09:31:16;6.93;;;4.43;;
77466;SDS011;66564;42.482;25.548;2023-11-19T09:33:42;4.50;;;2.90;;
77466;SDS011;66564;42.482;25.548;2023-11-19T09:36:08;3.22;;;2.50;;
77466;SDS011;66564;42.482;25.548;2023-11-19T09:38:35;2.75;;;2.10;;
77466;SDS011;66564;42.482;25.548;2023-11-19T09:41:04;4.85;;;2.75;;
77466;SDS011;66564;42.482;25.548;2023-11-19T09:43:35;8.48;;;4.57;;
77466;SDS011;66564;42.482;25.548;2023-11-19T09:46:04;3.88;;;2.63;;
77466;SDS011;66564;42.482;25.548;2023-11-19T09:48:35;4.22;;;2.50;;
77466;SDS011;66564;42.482;25.548;2023-11-19T09:51:02;9.98;;;2.72;;
77466;SDS011;66564;42.482;25.548;2023-11-19T09:53:30;4.70;;;3.15;;
77466;SDS011;66564;42.482;25.548;2023-11-19T09:55:56;3.45;;;2.13;;
77466;SDS011;66564;42.482;25.548;2023-11-19T09:58:24;6.40;;;3.65;;
77466;SDS011;66564;42.482;25.548;2023-11-19T10:00:51;3.13;;;2.33;;
77466;SDS011;66564;42.482;25.548;2023-11-19T10:03:17;12.98;;;7.90;;
77466;SDS011;66564;42.482;25.548;2023-11-19T10:05:43;3.28;;;2.28;;
77466;SDS011;66564;42.482;25.548;2023-11-19T10:08:08;2.90;;;2.15;;
77466;SDS011;66564;42.482;25.548;2023-11-19T10:10:36;4.47;;;2.95;;
77466;SDS011;66564;42.482;25.548;2023-11-19T10:13:01;3.80;;;2.88;;
77466;SDS011;66564;42.482;25.548;2023-11-19T10:15:27;3.50;;;2.17;;
77466;SDS011;66564;42.482;25.548;2023-11-19T10:17:59;3.72;;;2.50;;
77466;SDS011;66564;42.482;25.548;2023-11-19T10:20:25;5.50;;;3.10;;
77466;SDS011;66564;42.482;25.548;2023-11-19T10:22:53;4.63;;;2.88;;
77466;SDS011;66564;42.482;25.548;2023-11-19T10:27:52;3.90;;;2.50;;
77466;SDS011;66564;42.482;25.548;2023-11-19T10:30:20;4.30;;;2.70;;
77466;SDS011;66564;42.482;25.548;2023-11-19T10:32:57;9.43;;;2.72;;
77466;SDS011;66564;42.482;25.548;2023-11-19T10:35:35;6.70;;;3.10;;
77466;SDS011;66564;42.482;25.548;2023-11-19T10:38:15;5.15;;;3.00;;
77466;SDS011;66564;42.482;25.548;2023-11-19T10:40:41;14.60;;;3.28;;
77466;SDS011;66564;42.482;25.548;2023-11-19T10:43:07;12.63;;;3.20;;
77466;SDS011;66564;42.482;25.548;2023-11-19T10:45:33;4.93;;;3.00;;
77466;SDS011;66564;42.482;25.548;2023-11-19T10:47:59;12.50;;;4.57;;
77466;SDS011;66564;42.482;25.548;2023-11-19T10:50:26;8.98;;;4.60;;
77466;SDS011;66564;42.482;25.548;2023-11-19T10:52:55;4.80;;;2.78;;
77466;SDS011;66564;42.482;25.548;2023-11-19T10:55:26;5.60;;;2.90;;
77466;SDS011;66564;42.482;25.548;2023-11-19T11:00:23;3.33;;;2.20;;
77466;SDS011;66564;42.482;25.548;2023-11-19T11:02:50;3.83;;;2.50;;
77466;SDS011;66564;42.482;25.548;2023-11-19T11:05:22;3.63;;;2.28;;
77466;SDS011;66564;42.482;25.548;2023-11-19T11:07:47;5.80;;;3.10;;
77466;SDS011;66564;42.482;25.548;2023-11-19T11:10:16;49.60;;;5.50;;
77466;SDS011;66564;42.482;25.548;2023-11-19T11:12:43;9.10;;;2.50;;
77466;SDS011;66564;42.482;25.548;2023-11-19T11:15:12;4.82;;;2.47;;
77466;SDS011;66564;42.482;25.548;2023-11-19T11:17:40;8.32;;;2.63;;
77466;SDS011;66564;42.482;25.548;2023-11-19T11:20:08;6.00;;;2.63;;
77466;SDS011;66564;42.482;25.548;2023-11-19T11:22:37;6.93;;;2.50;;
77466;SDS011;66564;42.482;25.548;2023-11-19T11:31:08;3.47;;;2.17;;
77466;SDS011;66564;42.482;25.548;2023-11-19T11:33:44;3.67;;;2.60;;
77466;SDS011;66564;42.482;25.548;2023-11-19T11:36:23;3.25;;;2.45;;
77466;SDS011;66564;42.482;25.548;2023-11-19T11:38:50;4.45;;;2.25;;
77466;SDS011;66564;42.482;25.548;2023-11-19T11:43:50;12.43;;;2.55;;
77466;SDS011;66564;42.482;25.548;2023-11-19T11:49:01;3.90;;;2.60;;
77466;SDS011;66564;42.482;25.548;2023-11-19T11:52:03;4.13;;;2.83;;
77466;SDS011;66564;42.482;25.548;2023-11-19T11:59:52;3.60;;;2.45;;
77466;SDS011;66564;42.482;25.548;2023-11-19T12:02:18;3.70;;;2.67;;
77466;SDS011;66564;42.482;25.548;2023-11-19T12:04:50;3.45;;;2.60;;
77466;SDS011;66564;42.482;25.548;2023-11-19T12:07:18;4.20;;;3.38;;
77466;SDS011;66564;42.482;25.548;2023-11-19T12:12:34;3.30;;;2.25;;
77466;SDS011;66564;42.482;25.548;2023-11-19T12:15:09;17.83;;;2.47;;
77466;SDS011;66564;42.482;25.548;2023-11-19T12:17:36;3.92;;;2.40;;
77466;SDS011;66564;42.482;25.548;2023-11-19T12:20:09;4.40;;;2.47;;
77466;SDS011;66564;42.482;25.548;2023-11-19T12:22:39;6.50;;;2.25;;
77466;SDS011;66564;42.482;25.548;2023-11-19T12:25:06;2.63;;;2.00;;
77466;SDS011;66564;42.482;25.548;2023-11-19T12:27:34;3.10;;;2.20;;
77466;SDS011;66564;42.482;25.548;2023-11-19T12:30:00;3.05;;;2.30;;
77466;SDS011;66564;42.482;25.548;2023-11-19T12:32:37;3.25;;;1.95;;
77466;SDS011;66564;42.482;25.548;2023-11-19T12:35:03;2.80;;;2.10;;
77466;SDS011;66564;42.482;25.548;2023-11-19T12:37:31;2.78;;;2.10;;
77466;SDS011;66564;42.482;25.548;2023-11-19T12:39:57;2.15;;;1.88;;
77466;SDS011;66564;42.482;25.548;2023-11-19T12:42:36;2.92;;;2.08;;
77466;SDS011;66564;42.482;25.548;2023-11-19T12:47:31;3.20;;;2.25;;
77466;SDS011;66564;42.482;25.548;2023-11-19T12:49:57;3.85;;;2.22;;
77466;SDS011;66564;42.482;25.548;2023-11-19T12:52:23;3.33;;;2.40;;
77466;SDS011;66564;42.482;25.548;2023-11-19T12:54:49;3.80;;;2.20;;
77466;SDS011;66564;42.482;25.548;2023-11-19T12:57:15;2.80;;;2.00;;
77466;SDS011;66564;42.482;25.548;2023-11-19T12:59:40;6.70;;;2.38;;
77466;SDS011;66564;42.482;25.548;2023-11-19T13:02:06;2.97;;;2.10;;
77466;SDS011;66564;42.482;25.548;2023-11-19T13:04:32;11.70;;;2.20;;
77466;SDS011;66564;42.482;25.548;2023-11-19T13:07:01;3.10;;;2.15;;
77466;SDS011;66564;42.482;25.548;2023-11-19T13:09:29;3.30;;;2.47;;
77466;SDS011;66564;42.482;25.548;2023-11-19T13:11:55;3.72;;;2.45;;
77466;SDS011;66564;42.482;25.548;2023-11-19T13:17:01;3.30;;;2.20;;
77466;SDS011;66564;42.482;25.548;2023-11-19T13:19:27;2.83;;;2.28;;
77466;SDS011;66564;42.482;25.548;2023-11-19T13:21:52;2.40;;;1.92;;
77466;SDS011;66564;42.482;25.548;2023-11-19T13:24:17;3.67;;;2.00;;
77466;SDS011;66564;42.482;25.548;2023-11-19T13:26:43;3.15;;;2.47;;
77466;SDS011;66564;42.482;25.548;2023-11-19T13:29:09;2.70;;;2.08;;
77466;SDS011;66564;42.482;25.548;2023-11-19T13:31:36;3.40;;;2.13;;
77466;SDS011;66564;42.482;25.548;2023-11-19T13:34:01;2.33;;;1.90;;
77466;SDS011;66564;42.482;25.548;2023-11-19T13:36:27;2.85;;;2.20;;
77466;SDS011;66564;42.482;25.548;2023-11-19T13:38:55;2.97;;;2.15;;
77466;SDS011;66564;42.482;25.548;2023-11-19T13:41:24;4.00;;;2.63;;
77466;SDS011;66564;42.482;25.548;2023-11-19T13:43:50;3.53;;;2.25;;
77466;SDS011;66564;42.482;25.548;2023-11-19T13:46:16;3.00;;;2.17;;
77466;SDS011;66564;42.482;25.548;2023-11-19T13:48:41;3.65;;;2.40;;
77466;SDS011;66564;42.482;25.548;2023-11-19T13:51:07;4.05;;;2.33;;
77466;SDS011;66564;42.482;25.548;2023-11-19T13:53:35;3.45;;;2.10;;
77466;SDS011;66564;42.482;25.548;2023-11-19T13:56:00;3.97;;;2.30;;
77466;SDS011;66564;42.482;25.548;2023-11-19T13:58:26;4.50;;;2.58;;
77466;SDS011;66564;42.482;25.548;2023-11-19T14:00:52;4.85;;;2.88;;
77466;SDS011;66564;42.482;25.548;2023-11-19T14:03:17;3.60;;;2.53;;
77466;SDS011;66564;42.482;25.548;2023-11-19T14:05:43;3.28;;;2.17;;
77466;SDS011;66564;42.482;25.548;2023-11-19T14:08:08;3.45;;;2.58;;
77466;SDS011;66564;42.482;25.548;2023-11-19T14:10:39;4.45;;;2.25;;
77466;SDS011;66564;42.482;25.548;2023-11-19T14:13:05;11.38;;;2.97;;
77466;SDS011;66564;42.482;25.548;2023-11-19T14:15:34;3.90;;;2.30;;
77466;SDS011;66564;42.482;25.548;2023-11-19T14:18:00;3.92;;;2.70;;
77466;SDS011;66564;42.482;25.548;2023-11-19T14:20:27;4.57;;;2.58;;
77466;SDS011;66564;42.482;25.548;2023-11-19T14:22:53;3.17;;;2.08;;
77466;SDS011;66564;42.482;25.548;2023-11-19T14:25:18;4.07;;;2.78;;
77466;SDS011;66564;42.482;25.548;2023-11-19T14:27:44;6.43;;;2.20;;
77466;SDS011;66564;42.482;25.548;2023-11-19T14:30:13;3.75;;;2.20;;
77466;SDS011;66564;42.482;25.548;2023-11-19T14:32:40;9.98;;;3.13;;
77466;SDS011;66564;42.482;25.548;2023-11-19T14:35:10;22.38;;;2.85;;
77466;SDS011;66564;42.482;25.548;2023-11-19T14:37:36;12.98;;;2.97;;
77466;SDS011;66564;42.482;25.548;2023-11-19T14:40:05;10.30;;;2.67;;
77466;SDS011;66564;42.482;25.548;2023-11-19T14:42:32;18.88;;;3.10;;
77466;SDS011;66564;42.482;25.548;2023-11-19T14:44:57;3.42;;;2.35;;
77466;SDS011;66564;42.482;25.548;2023-11-19T14:49:54;6.25;;;2.65;;
77466;SDS011;66564;42.482;25.548;2023-11-19T14:52:19;15.18;;;2.80;;
77466;SDS011;66564;42.482;25.548;2023-11-19T14:54:45;5.03;;;2.60;;
77466;SDS011;66564;42.482;25.548;2023-11-19T14:57:10;4.63;;;2.92;;
77466;SDS011;66564;42.482;25.548;2023-11-19T14:59:36;3.78;;;2.50;;
77466;SDS011;66564;42.482;25.548;2023-11-19T15:02:02;75.50;;;6.47;;
77466;SDS011;66564;42.482;25.548;2023-11-19T15:04:28;22.45;;;4.38;;
77466;SDS011;66564;42.482;25.548;2023-11-19T15:06:57;19.38;;;4.30;;
77466;SDS011;66564;42.482;25.548;2023-11-19T15:09:24;6.53;;;2.63;;